Time;durP1;ratioP1;P1;durP2;ratioP2;P2;SDS_P1;SDS_P2;PMS_P1;PMS_P2;Temp;Humidity;BMP_temperature;BMP_pressure;BME280_temperature;BME280_humidity;BME280_pressure;Samples;Min_cycle;Max_cycle;Signal;HPM_P1;HPM_P2
2022/02/05 11:49:57;;;;;;;4.88;3.75;;;;;;;;;;5131694;27;20542;-74
2022/02/05 11:52:36;;;;;;;5.57;3.83;;;;;;;;;;5131774;28;20170;-74
2022/02/05 11:55:05;;;;;;;9.95;3.40;;;;;;;;;;5131498;28;20166;-74
2022/02/05 11:57:43;;;;;;;3.63;3.08;;;;;;;;;;5131620;28;20284;-75
2022/02/05 12:00:11;;;;;;;8.18;4.03;;;;;;;;;;5131549;28;20210;-75
2022/02/05 12:02:57;;;;;;;5.82;3.90;;;;;;;;;;5131597;28;20158;-75
2022/02/05 12:05:26;;;;;;;6.00;3.80;;;;;;;;;;5131375;28;20673;-75
2022/02/05 12:08:21;;;;;;;10.50;4.35;;;;;;;;;;5131364;28;20229;-75
2022/02/05 12:10:51;;;;;;;10.15;3.72;;;;;;;;;;5131381;28;20525;-75
2022/02/05 12:13:20;;;;;;;9.65;3.25;;;;;;;;;;5131272;28;20209;-75
2022/02/05 12:15:47;;;;;;;12.68;4.50;;;;;;;;;;5131232;28;20166;-75
2022/02/05 12:18:24;;;;;;;9.65;4.05;;;;;;;;;;5131211;28;20689;-75
2022/02/05 12:23:52;;;;;;;5.68;3.20;;;;;;;;;;5132646;28;20174;-75
2022/02/05 12:26:25;;;;;;;5.18;3.67;;;;;;;;;;5130981;28;20179;-74
2022/02/05 12:28:52;;;;;;;3.80;3.45;;;;;;;;;;5130934;28;20197;-75
2022/02/05 12:31:18;;;;;;;6.88;4.00;;;;;;;;;;5131011;28;20704;-74
2022/02/05 12:33:45;;;;;;;7.28;4.13;;;;;;;;;;5130856;28;20175;-75
2022/02/05 12:36:11;;;;;;;10.55;3.95;;;;;;;;;;5130888;28;20169;-74
2022/02/05 12:38:40;;;;;;;7.93;3.25;;;;;;;;;;5130775;28;20525;-74
2022/02/05 12:41:07;;;;;;;5.40;3.65;;;;;;;;;;5130775;28;20198;-74
2022/02/05 12:43:49;;;;;;;5.30;3.50;;;;;;;;;;5130675;28;20617;-75
2022/02/05 12:46:15;;;;;;;9.55;4.10;;;;;;;;;;5129501;28;20250;-75
2022/02/05 12:48:44;;;;;;;7.72;3.97;;;;;;;;;;5130408;28;20210;-75
2022/02/05 12:51:12;;;;;;;6.47;4.47;;;;;;;;;;5130595;27;20167;-75
2022/02/05 12:53:40;;;;;;;12.07;4.70;;;;;;;;;;5130549;28;20158;-75
2022/02/05 12:56:20;;;;;;;5.93;4.03;;;;;;;;;;5130481;27;20169;-75
2022/02/05 12:59:00;;;;;;;12.38;5.22;;;;;;;;;;5129991;28;20260;-75
2022/02/05 13:01:26;;;;;;;6.40;4.60;;;;;;;;;;5116637;28;20171;-75
2022/02/05 13:03:52;;;;;;;8.68;4.55;;;;;;;;;;5116713;28;20507;-75
2022/02/05 13:06:21;;;;;;;9.70;4.47;;;;;;;;;;5115100;28;20171;-75
2022/02/05 13:08:48;;;;;;;8.75;4.57;;;;;;;;;;5115189;28;20294;-75
2022/02/05 13:11:18;;;;;;;8.60;4.70;;;;;;;;;;5116610;28;20238;-75
2022/02/05 13:13:54;;;;;;;7.97;4.00;;;;;;;;;;5116486;28;20171;-75
2022/02/05 13:16:21;;;;;;;8.75;4.70;;;;;;;;;;5116539;28;20190;-75
2022/02/05 13:19:06;;;;;;;8.38;4.20;;;;;;;;;;5116367;28;20184;-75
2022/02/05 13:27:45;;;;;;;7.72;3.03;;;;;;;;;;5094101;28;20195;-75
2022/02/05 13:36:35;;;;;;;4.00;3.58;;;;;;;;;;5013689;28;20178;-75
2022/02/05 13:41:56;;;;;;;6.63;3.40;;;;;;;;;;5115933;28;20171;-75
2022/02/05 13:44:24;;;;;;;3.63;2.92;;;;;;;;;;5115892;28;20187;-75
2022/02/05 13:47:10;;;;;;;4.60;2.88;;;;;;;;;;5115828;28;20644;-75
2022/02/05 13:49:37;;;;;;;4.47;2.95;;;;;;;;;;5115847;28;20205;-75
2022/02/05 13:52:11;;;;;;;3.22;2.50;;;;;;;;;;5115804;28;20170;-75
2022/02/05 13:54:37;;;;;;;5.82;2.90;;;;;;;;;;5114530;28;20193;-75
2022/02/05 13:57:04;;;;;;;7.72;2.60;;;;;;;;;;5115739;28;20166;-75
2022/02/05 13:59:32;;;;;;;3.42;2.58;;;;;;;;;;5115507;28;20175;-75
2022/02/05 14:02:11;;;;;;;2.80;2.60;;;;;;;;;;5114351;28;20269;-75
2022/02/05 14:04:37;;;;;;;5.40;3.17;;;;;;;;;;5115565;28;20178;-75
2022/02/05 14:07:03;;;;;;;3.92;2.75;;;;;;;;;;5115565;28;20173;-75
2022/02/05 14:09:30;;;;;;;5.15;3.33;;;;;;;;;;5115276;28;20202;-75
2022/02/05 14:11:57;;;;;;;5.50;2.85;;;;;;;;;;5114424;28;20639;-75
2022/02/05 14:14:27;;;;;;;6.10;3.20;;;;;;;;;;5113995;28;20262;-75
2022/02/05 14:16:59;;;;;;;10.55;4.10;;;;;;;;;;5115437;28;20175;-75
2022/02/05 14:19:26;;;;;;;3.08;2.78;;;;;;;;;;5115226;28;20167;-75
2022/02/05 14:21:54;;;;;;;9.20;3.15;;;;;;;;;;5115194;28;20171;-75
2022/02/05 14:24:23;;;;;;;7.28;2.63;;;;;;;;;;5115126;28;20250;-75
2022/02/05 14:26:59;;;;;;;3.88;2.83;;;;;;;;;;5115101;28;20163;-75
2022/02/05 14:29:27;;;;;;;5.45;2.97;;;;;;;;;;5115054;28;20655;-75
2022/02/05 14:31:57;;;;;;;5.88;2.78;;;;;;;;;;5114921;28;20163;-75
2022/02/05 14:42:21;;;;;;;3.95;2.40;;;;;;;;;;5114827;28;20177;-75
2022/02/05 14:44:48;;;;;;;7.38;2.50;;;;;;;;;;5114651;28;20194;-75
2022/02/05 14:47:15;;;;;;;4.10;2.35;;;;;;;;;;5114429;28;20174;-75
2022/02/05 14:49:41;;;;;;;5.95;2.60;;;;;;;;;;5114666;28;20337;-76
2022/02/05 14:52:10;;;;;;;5.25;2.95;;;;;;;;;;5114602;28;20171;-75
2022/02/05 14:54:36;;;;;;;6.90;2.80;;;;;;;;;;5114545;28;20159;-75
2022/02/05 14:57:02;;;;;;;10.95;3.08;;;;;;;;;;5114366;28;20163;-75
2022/02/05 14:59:30;;;;;;;11.57;2.42;;;;;;;;;;5114401;28;20636;-75
2022/02/05 15:01:56;;;;;;;3.13;2.80;;;;;;;;;;5114388;28;20189;-75
2022/02/05 15:04:22;;;;;;;6.35;2.60;;;;;;;;;;5114350;28;20171;-76
2022/02/05 15:06:48;;;;;;;5.95;2.70;;;;;;;;;;5114360;28;20170;-75
2022/02/05 15:09:14;;;;;;;5.68;2.85;;;;;;;;;;5112847;28;20522;-75
2022/02/05 15:11:40;;;;;;;7.45;2.85;;;;;;;;;;5114280;28;20249;-75
2022/02/05 15:14:07;;;;;;;5.15;2.55;;;;;;;;;;5114186;28;20218;-75
2022/02/05 15:16:34;;;;;;;8.57;1.98;;;;;;;;;;5114155;28;20171;-75
2022/02/05 15:19:01;;;;;;;5.65;2.50;;;;;;;;;;5114119;28;20193;-75
2022/02/05 15:21:28;;;;;;;4.38;2.97;;;;;;;;;;5114087;28;20170;-75
2022/02/05 15:23:56;;;;;;;4.15;2.40;;;;;;;;;;5112434;28;20181;-75
2022/02/05 15:26:22;;;;;;;4.55;1.95;;;;;;;;;;5112731;28;20271;-75
2022/02/05 15:28:48;;;;;;;4.85;2.55;;;;;;;;;;5112610;28;20202;-75
2022/02/05 15:31:15;;;;;;;5.38;2.30;;;;;;;;;;5113950;28;20171;-75
2022/02/05 15:33:46;;;;;;;8.57;2.58;;;;;;;;;;5113866;28;20217;-75
2022/02/05 15:36:17;;;;;;;3.92;2.53;;;;;;;;;;5113829;28;20163;-75
2022/02/05 15:38:50;;;;;;;4.22;2.30;;;;;;;;;;5113910;28;20221;-75
2022/02/05 15:44:01;;;;;;;4.18;2.65;;;;;;;;;;5113753;28;20200;-76
2022/02/05 15:46:27;;;;;;;9.13;3.33;;;;;;;;;;5112485;28;20171;-75
2022/02/05 15:48:53;;;;;;;2.92;2.63;;;;;;;;;;5113453;28;20225;-75
